createdAt,value
2023-02-13T00:02:12.513Z,75.50
2023-02-13T00:04:42.869Z,75.50
2023-02-13T00:07:12.753Z,75.40
2023-02-13T00:09:41.784Z,75.50
2023-02-13T00:12:11.378Z,76.20
2023-02-13T00:14:41.736Z,75.50
2023-02-13T00:17:10.745Z,75.50
2023-02-13T00:19:42.001Z,75.50
2023-02-13T00:22:11.069Z,75.30
2023-02-13T00:24:40.119Z,75.30
2023-02-13T00:27:09.067Z,75.40
2023-02-13T00:29:38.153Z,75.40
2023-02-13T00:32:08.803Z,75.10
2023-02-13T00:34:37.942Z,75.00
2023-02-13T00:37:06.942Z,75.10
2023-02-13T00:39:35.952Z,75.30
2023-02-13T00:42:05.489Z,75.40
2023-02-13T00:44:34.763Z,75.20
2023-02-13T00:47:04.925Z,75.10
2023-02-13T00:49:35.298Z,75.20
2023-02-13T00:52:05.162Z,75.20
2023-02-13T00:54:34.233Z,75.20
2023-02-13T00:57:03.393Z,75.10
2023-02-13T00:59:32.577Z,75.10
2023-02-13T01:02:02.956Z,75.10
2023-02-13T01:04:34.505Z,75.80
2023-02-13T01:07:03.595Z,75.30
2023-02-13T01:09:32.808Z,75.30
2023-02-13T01:12:01.971Z,75.40
2023-02-13T01:14:31.260Z,75.40
2023-02-13T01:17:00.350Z,75.20
2023-02-13T01:19:29.778Z,75.80
2023-02-13T01:22:01.547Z,75.10
2023-02-13T01:24:33.313Z,75.30
2023-02-13T01:27:03.303Z,75.30
2023-02-13T01:29:32.558Z,75.20
2023-02-13T01:32:06.446Z,75.20
2023-02-13T01:34:35.971Z,75.20
2023-02-13T01:37:07.844Z,75.30
2023-02-13T01:39:36.838Z,76.20
2023-02-13T01:42:06.228Z,75.40
2023-02-13T01:44:51.328Z,75.40
2023-02-13T01:50:35.350Z,76.30
2023-02-13T01:53:10.715Z,75.40
2023-02-13T01:55:48.216Z,75.60
2023-02-13T01:58:26.795Z,75.60
2023-02-13T02:00:56.177Z,75.50
2023-02-13T02:03:37.366Z,75.40
2023-02-13T02:06:17.939Z,75.50
2023-02-13T02:08:51.012Z,75.40
2023-02-13T02:11:32.155Z,76.40
2023-02-13T02:14:02.704Z,75.50
2023-02-13T02:16:35.244Z,75.50
2023-02-13T02:19:10.608Z,75.40
2023-02-13T02:22:10.537Z,75.30
2023-02-13T02:25:34.307Z,75.80
2023-02-13T02:28:23.818Z,75.80
2023-02-13T02:31:23.222Z,75.40
2023-02-13T02:34:10.936Z,75.50
2023-02-13T02:36:58.377Z,75.50
2023-02-13T02:39:39.160Z,76.20
2023-02-13T02:42:21.422Z,75.60
2023-02-13T02:44:59.163Z,75.70
2023-02-13T02:47:55.650Z,76.20
2023-02-13T02:50:37.695Z,75.70
2023-02-13T02:53:18.801Z,76.50
2023-02-13T02:55:55.744Z,75.60
2023-02-13T02:58:50.796Z,75.50
2023-02-13T03:01:45.951Z,75.50
2023-02-13T03:04:38.758Z,75.60
2023-02-13T03:07:12.874Z,75.70
2023-02-13T03:10:06.870Z,75.80
2023-02-13T03:12:59.260Z,75.80
2023-02-13T03:15:28.909Z,75.80
2023-02-13T03:18:13.003Z,75.70
2023-02-13T03:21:06.740Z,75.80
2023-02-13T03:23:50.712Z,75.90
2023-02-13T03:26:50.384Z,75.90
2023-02-13T03:29:55.637Z,76.00
2023-02-13T03:32:35.111Z,75.80
2023-02-13T03:35:38.477Z,75.70
2023-02-13T03:38:14.786Z,75.60
2023-02-13T03:41:09.560Z,75.40
2023-02-13T03:43:46.100Z,75.60
2023-02-13T03:46:20.886Z,75.70
2023-02-13T03:49:07.793Z,76.50
2023-02-13T03:51:44.467Z,75.70
2023-02-13T03:54:20.657Z,75.60
2023-02-13T03:57:11.301Z,75.80
2023-02-13T03:59:40.487Z,75.80
2023-02-13T04:02:14.865Z,75.70
2023-02-13T04:04:52.292Z,75.90
2023-02-13T04:07:32.230Z,76.00
2023-02-13T04:10:05.484Z,76.00
2023-02-13T04:12:44.898Z,76.00
2023-02-13T04:15:22.224Z,76.10
2023-02-13T04:17:56.932Z,75.70
2023-02-13T04:20:28.868Z,75.70
2023-02-13T04:22:57.871Z,75.60
2023-02-13T04:25:29.083Z,75.60
2023-02-13T04:27:59.464Z,75.70
2023-02-13T04:30:28.562Z,75.40
2023-02-13T04:32:57.698Z,75.30
2023-02-13T04:35:26.763Z,75.00
2023-02-13T04:37:55.862Z,74.90
2023-02-13T04:40:24.946Z,74.80
2023-02-13T04:42:58.243Z,74.80
2023-02-13T04:45:27.491Z,74.90
2023-02-13T04:47:59.547Z,75.00
2023-02-13T04:50:28.491Z,75.30
2023-02-13T04:52:58.988Z,75.30
2023-02-13T04:55:29.475Z,75.60
2023-02-13T04:58:00.056Z,75.60
2023-02-13T05:00:30.555Z,75.60
2023-02-13T05:03:06.083Z,75.70
2023-02-13T05:05:35.917Z,75.80
2023-02-13T05:08:05.389Z,75.80
2023-02-13T05:10:37.530Z,75.80
2023-02-13T05:13:07.889Z,75.70
2023-02-13T05:15:36.868Z,75.50
2023-02-13T05:18:06.175Z,75.40
2023-02-13T05:20:35.136Z,75.60
2023-02-13T05:23:21.856Z,75.70
2023-02-13T05:25:51.614Z,75.70
2023-02-13T05:28:39.769Z,75.80
2023-02-13T05:31:08.858Z,75.70
2023-02-13T05:33:38.955Z,76.30
2023-02-13T05:36:09.107Z,75.70
2023-02-13T05:38:38.133Z,75.70
2023-02-13T05:41:07.088Z,75.70
2023-02-13T05:43:37.449Z,75.90
2023-02-13T05:46:08.694Z,76.00
2023-02-13T05:48:38.279Z,76.10
2023-02-13T05:51:07.563Z,76.10
2023-02-13T05:53:36.599Z,76.20
2023-02-13T05:56:09.152Z,76.10
2023-02-13T05:58:39.470Z,75.90
2023-02-13T06:01:10.780Z,76.60
2023-02-13T06:03:40.339Z,75.70
2023-02-13T06:06:09.684Z,75.60
2023-02-13T06:08:38.773Z,75.50
2023-02-13T06:11:08.321Z,75.40
2023-02-13T06:13:41.886Z,75.50
2023-02-13T06:16:14.462Z,75.60
2023-02-13T06:18:43.568Z,75.80
2023-02-13T06:21:12.579Z,75.90
2023-02-13T06:23:41.825Z,76.00
2023-02-13T06:26:11.495Z,76.00
2023-02-13T06:28:41.965Z,76.10
2023-02-13T06:31:11.202Z,76.20
2023-02-13T06:33:43.052Z,76.80
2023-02-13T06:36:12.010Z,76.10
2023-02-13T06:38:41.051Z,76.10
2023-02-13T06:41:10.918Z,76.00
2023-02-13T06:43:41.275Z,76.20
2023-02-13T06:46:10.978Z,76.20
2023-02-13T06:48:40.075Z,76.20
2023-02-13T06:51:09.065Z,76.20
2023-02-13T06:53:38.073Z,76.20
2023-02-13T06:56:07.606Z,76.80
2023-02-13T06:58:36.661Z,76.00
2023-02-13T07:01:07.430Z,76.10
2023-02-13T07:03:36.459Z,76.20
2023-02-13T07:06:05.789Z,76.30
2023-02-13T07:08:34.764Z,76.40
2023-02-13T07:11:03.739Z,76.40
2023-02-13T07:13:32.846Z,76.50
2023-02-13T07:16:02.821Z,76.50
2023-02-13T07:18:33.227Z,76.60
2023-02-13T07:21:02.166Z,76.70
2023-02-13T07:23:31.203Z,76.60
2023-02-13T07:26:01.050Z,76.70
2023-02-13T07:28:30.776Z,76.80
2023-02-13T07:31:05.110Z,76.80
2023-02-13T07:33:36.355Z,76.80
2023-02-13T07:36:06.701Z,76.80
2023-02-13T07:38:35.828Z,76.80
2023-02-13T07:41:05.931Z,76.80
2023-02-13T07:43:34.980Z,77.00
2023-02-13T07:46:05.754Z,77.80
2023-02-13T07:48:36.124Z,77.20
2023-02-13T07:51:07.597Z,77.20
2023-02-13T07:53:37.211Z,77.00
2023-02-13T07:56:10.394Z,76.90
2023-02-13T07:58:42.350Z,77.00
2023-02-13T08:01:14.626Z,77.60
2023-02-13T08:03:45.065Z,76.90
2023-02-13T08:06:14.126Z,77.00
2023-02-13T08:08:43.137Z,77.10
2023-02-13T08:11:42.474Z,77.20
2023-02-13T08:14:11.603Z,78.00
2023-02-13T08:16:40.672Z,77.30
2023-02-13T08:19:10.989Z,78.00
2023-02-13T08:21:42.910Z,78.10
2023-02-13T08:24:12.315Z,78.30
2023-02-13T08:26:41.804Z,78.70
2023-02-13T08:29:11.525Z,78.90
2023-02-13T08:31:40.561Z,79.10
2023-02-13T08:34:11.581Z,79.30
2023-02-13T08:36:40.651Z,79.70
2023-02-13T08:39:10.938Z,79.70
2023-02-13T08:41:41.093Z,79.90
2023-02-13T08:44:11.664Z,80.10
2023-02-13T08:46:40.784Z,80.30
2023-02-13T08:49:11.221Z,80.30
2023-02-13T08:51:40.242Z,80.60
2023-02-13T08:54:10.385Z,80.60
2023-02-13T08:56:39.701Z,80.70
2023-02-13T08:59:09.014Z,80.90
2023-02-13T09:01:38.172Z,81.00
2023-02-13T09:04:07.296Z,81.30
2023-02-13T09:06:37.949Z,82.00
2023-02-13T09:09:07.262Z,81.20
2023-02-13T09:11:36.308Z,81.50
2023-02-13T09:14:08.101Z,81.60
2023-02-13T09:16:37.174Z,82.40
2023-02-13T09:19:06.202Z,82.50
2023-02-13T09:21:35.334Z,81.90
2023-02-13T09:24:08.994Z,81.90
2023-02-13T09:26:38.172Z,82.00
2023-02-13T09:29:07.181Z,82.10
2023-02-13T09:31:36.276Z,82.30
2023-02-13T09:34:05.381Z,82.30
2023-02-13T09:36:34.423Z,82.60
2023-02-13T09:39:07.839Z,82.90
2023-02-13T09:41:40.960Z,83.10
2023-02-13T09:44:33.909Z,83.20
2023-02-13T09:47:08.854Z,82.80
2023-02-13T09:49:44.751Z,82.90
2023-02-13T09:52:13.836Z,82.40
2023-02-13T09:54:44.252Z,82.90
2023-02-13T09:57:21.764Z,82.70
2023-02-13T10:00:01.715Z,82.00
2023-02-13T10:03:23.498Z,81.60
2023-02-13T10:06:03.879Z,80.60
2023-02-13T10:09:09.264Z,81.60
2023-02-13T10:12:05.928Z,81.60
2023-02-13T10:14:47.424Z,81.10
2023-02-13T10:17:22.837Z,81.00
2023-02-13T10:19:58.507Z,81.00
2023-02-13T10:22:34.475Z,81.70
2023-02-13T10:25:07.900Z,82.30
2023-02-13T10:27:44.596Z,81.50
2023-02-13T10:30:22.486Z,80.90
2023-02-13T10:33:13.997Z,80.90
2023-02-13T10:35:46.297Z,81.40
2023-02-13T10:38:19.098Z,81.50
2023-02-13T10:41:22.280Z,80.00
2023-02-13T10:44:07.392Z,77.80
2023-02-13T10:46:46.563Z,78.50
2023-02-13T10:49:47.807Z,79.20
2023-02-13T10:52:29.772Z,77.70
2023-02-13T10:55:16.417Z,78.50
2023-02-13T10:58:09.525Z,76.60
2023-02-13T11:00:48.180Z,75.90
2023-02-13T11:03:20.959Z,76.20
2023-02-13T11:05:51.033Z,76.20
2023-02-13T11:08:23.858Z,76.30
2023-02-13T11:10:53.826Z,75.40
2023-02-13T11:13:25.530Z,76.00
2023-02-13T11:16:05.446Z,76.30
2023-02-13T11:18:37.720Z,73.90
2023-02-13T11:21:10.765Z,74.90
2023-02-13T11:23:45.584Z,74.00
2023-02-13T11:26:23.305Z,74.50
2023-02-13T11:28:56.682Z,74.40
2023-02-13T11:31:32.912Z,74.40
2023-02-13T11:34:26.322Z,73.80
2023-02-13T11:37:11.127Z,72.20
2023-02-13T11:39:41.259Z,73.30
2023-02-13T11:42:16.508Z,72.90
2023-02-13T11:44:51.664Z,71.40
2023-02-13T11:47:37.562Z,72.30
2023-02-13T11:50:20.521Z,72.10
2023-02-13T11:52:59.274Z,72.30
2023-02-13T11:55:33.466Z,70.40
2023-02-13T11:58:05.268Z,70.10
2023-02-13T12:00:41.530Z,70.10
2023-02-13T12:03:30.522Z,70.20
2023-02-13T12:06:07.198Z,68.50
2023-02-13T12:08:39.898Z,69.80
2023-02-13T12:11:22.512Z,69.60
2023-02-13T12:13:53.208Z,69.90
2023-02-13T12:16:31.631Z,71.20
2023-02-13T12:19:07.416Z,70.80
2023-02-13T12:21:58.915Z,70.10
2023-02-13T12:24:52.403Z,69.00
2023-02-13T12:27:31.534Z,70.70
2023-02-13T12:30:33.055Z,69.60
2023-02-13T12:33:16.613Z,68.60
2023-02-13T12:35:58.531Z,69.60
2023-02-13T12:38:48.168Z,68.30
2023-02-13T12:41:21.621Z,68.10
2023-02-13T12:44:32.119Z,68.10
2023-02-13T12:47:13.011Z,66.50
2023-02-13T12:50:37.482Z,66.70
2023-02-13T12:53:29.530Z,66.00
2023-02-13T12:56:26.992Z,67.60
2023-02-13T12:59:11.515Z,65.70
2023-02-13T13:02:30.519Z,65.00
2023-02-13T13:05:15.350Z,65.70
2023-02-13T13:08:13.039Z,65.90
2023-02-13T13:10:55.042Z,65.60
2023-02-13T13:13:39.213Z,65.60
2023-02-13T13:16:20.139Z,66.40
2023-02-13T13:19:02.876Z,66.40
2023-02-13T13:21:43.004Z,66.40
2023-02-13T13:24:33.539Z,66.30
2023-02-13T13:27:04.952Z,64.70
2023-02-13T13:29:43.259Z,65.80
2023-02-13T13:32:18.320Z,65.30
2023-02-13T13:34:48.147Z,66.00
2023-02-13T13:37:30.743Z,66.20
2023-02-13T13:40:16.227Z,65.80
2023-02-13T13:42:53.217Z,65.70
2023-02-13T13:45:38.319Z,65.70
2023-02-13T13:48:41.775Z,66.50
2023-02-13T13:51:19.725Z,65.80
2023-02-13T13:54:35.585Z,65.70
2023-02-13T13:57:13.599Z,65.10
2023-02-13T14:00:26.306Z,65.60
2023-02-13T14:03:36.398Z,65.80
2023-02-13T14:06:09.503Z,65.80
2023-02-13T14:09:06.852Z,66.00
2023-02-13T14:11:46.770Z,66.20
2023-02-13T14:14:54.106Z,65.70
2023-02-13T14:17:56.137Z,65.80
2023-02-13T14:20:36.834Z,65.20
2023-02-13T14:23:37.337Z,66.00
2023-02-13T14:26:33.674Z,65.40
2023-02-13T14:29:32.893Z,65.60
2023-02-13T14:32:19.920Z,65.90
2023-02-13T14:34:59.434Z,66.00
2023-02-13T14:37:40.410Z,65.70
2023-02-13T14:40:48.182Z,65.70
2023-02-13T14:43:37.463Z,66.00
2023-02-13T14:46:22.105Z,66.10
2023-02-13T14:48:58.666Z,66.20
2023-02-13T14:51:35.989Z,66.20
2023-02-13T14:54:20.286Z,67.20
2023-02-13T14:56:53.022Z,66.90
2023-02-13T14:59:32.673Z,66.50
2023-02-13T15:02:08.699Z,66.50
2023-02-13T15:04:44.364Z,66.50
2023-02-13T15:07:21.648Z,66.60
2023-02-13T15:09:55.316Z,66.80
2023-02-13T15:12:30.969Z,66.70
2023-02-13T15:15:02.417Z,67.30
2023-02-13T15:17:38.356Z,66.90
2023-02-13T15:20:26.748Z,66.80
2023-02-13T15:22:59.302Z,67.00
2023-02-13T15:25:35.995Z,67.10
2023-02-13T15:28:10.063Z,67.40
2023-02-13T15:30:39.679Z,67.40
2023-02-13T15:33:19.308Z,67.30
2023-02-13T15:35:59.541Z,68.20
2023-02-13T15:38:31.217Z,67.60
2023-02-13T15:41:04.050Z,67.50
2023-02-13T15:43:38.391Z,67.60
2023-02-13T15:46:20.348Z,67.50
2023-02-13T15:48:50.081Z,67.50
2023-02-13T15:51:23.860Z,67.50
2023-02-13T15:53:54.247Z,67.40
2023-02-13T15:56:26.920Z,67.30
2023-02-13T15:58:57.480Z,67.20
2023-02-13T16:01:26.811Z,67.20
2023-02-13T16:04:01.511Z,67.40
2023-02-13T16:06:32.976Z,67.40
2023-02-13T16:09:03.254Z,68.00
2023-02-13T16:11:35.947Z,67.30
2023-02-13T16:14:25.307Z,67.40
2023-02-13T16:16:59.442Z,67.40
2023-02-13T16:19:37.422Z,67.40
2023-02-13T16:22:26.622Z,67.20
2023-02-13T16:25:06.757Z,67.50
2023-02-13T16:27:36.380Z,67.40
2023-02-13T16:30:17.545Z,67.50
2023-02-13T16:32:46.548Z,67.60
2023-02-13T16:35:30.925Z,67.80
2023-02-13T16:38:04.772Z,67.90
2023-02-13T16:40:43.413Z,67.70
2023-02-13T16:43:39.888Z,67.80
2023-02-13T16:46:31.176Z,67.90
2023-02-13T16:49:21.076Z,67.80
2023-02-13T16:51:55.185Z,67.90
2023-02-13T16:54:33.407Z,67.90
2023-02-13T16:57:18.535Z,68.00
2023-02-13T17:00:02.056Z,68.20
2023-02-13T17:02:33.751Z,68.00
2023-02-13T17:05:21.368Z,68.00
2023-02-13T17:07:53.094Z,68.20
2023-02-13T17:10:27.419Z,68.00
2023-02-13T17:12:59.645Z,67.80
2023-02-13T17:15:31.626Z,68.50
2023-02-13T17:18:00.954Z,67.80
2023-02-13T17:20:36.188Z,67.80
2023-02-13T17:23:08.246Z,67.80
2023-02-13T17:25:39.745Z,68.40
2023-02-13T17:28:14.998Z,67.80
2023-02-13T17:30:44.922Z,67.80
2023-02-13T17:33:18.102Z,67.70
2023-02-13T17:35:47.083Z,67.80
2023-02-13T17:38:16.352Z,67.70
2023-02-13T17:40:47.842Z,67.60
2023-02-13T17:43:19.735Z,68.50
2023-02-13T17:45:49.985Z,68.60
2023-02-13T17:48:19.117Z,67.80
2023-02-13T17:50:50.022Z,67.80
2023-02-13T17:53:34.838Z,68.10
2023-02-13T17:56:05.575Z,67.90
2023-02-13T17:58:34.664Z,68.00
2023-02-13T18:01:06.772Z,67.70
2023-02-13T18:03:35.730Z,67.80
2023-02-13T18:06:07.927Z,67.90
2023-02-13T18:08:36.986Z,68.00
2023-02-13T18:11:12.395Z,68.20
2023-02-13T18:13:48.007Z,68.20
2023-02-13T18:16:17.422Z,67.90
2023-02-13T18:18:46.402Z,67.60
2023-02-13T18:21:15.300Z,67.60
2023-02-13T18:23:44.352Z,67.70
2023-02-13T18:26:14.689Z,67.60
2023-02-13T18:28:43.761Z,67.70
2023-02-13T18:31:13.721Z,67.40
2023-02-13T18:33:42.788Z,67.10
2023-02-13T18:36:12.736Z,67.10
2023-02-13T18:38:41.804Z,67.40
2023-02-13T18:41:15.128Z,67.40
2023-02-13T18:43:44.109Z,67.50
2023-02-13T18:46:15.994Z,67.80
2023-02-13T18:48:45.036Z,68.10
2023-02-13T18:51:14.489Z,68.30
2023-02-13T18:53:43.503Z,68.70
2023-02-13T18:56:14.274Z,68.20
2023-02-13T18:58:43.336Z,68.10
2023-02-13T19:01:32.566Z,68.30
2023-02-13T19:04:03.301Z,68.30
2023-02-13T19:06:33.433Z,68.50
2023-02-13T19:09:02.463Z,68.40
2023-02-13T19:11:34.328Z,68.40
2023-02-13T19:14:03.351Z,68.10
2023-02-13T19:16:34.810Z,68.20
2023-02-13T19:19:07.956Z,68.30
2023-02-13T19:21:39.384Z,69.40
2023-02-13T19:24:15.377Z,68.70
2023-02-13T19:26:48.860Z,69.70
2023-02-13T19:29:17.880Z,68.90
2023-02-13T19:31:47.095Z,69.60
2023-02-13T19:34:16.179Z,68.90
2023-02-13T19:36:48.172Z,68.80
2023-02-13T19:39:17.689Z,68.70
2023-02-13T19:41:51.032Z,68.70
2023-02-13T19:44:20.027Z,68.80
2023-02-13T19:46:49.037Z,68.90
2023-02-13T19:49:19.020Z,69.70
2023-02-13T19:51:50.749Z,69.60
2023-02-13T19:54:22.479Z,69.00
2023-02-13T19:56:54.680Z,69.80
2023-02-13T19:59:23.767Z,69.30
2023-02-13T20:01:52.788Z,69.20
2023-02-13T20:04:21.921Z,69.30
2023-02-13T20:06:57.536Z,69.40
2023-02-13T20:09:26.624Z,69.50
2023-02-13T20:11:57.034Z,69.60
2023-02-13T20:14:26.030Z,69.60
2023-02-13T20:16:55.039Z,69.60
2023-02-13T20:19:27.849Z,69.40
2023-02-13T20:21:59.014Z,69.20
2023-02-13T20:24:28.113Z,69.40
2023-02-13T20:26:58.911Z,69.40
2023-02-13T20:29:27.928Z,69.40
2023-02-13T20:31:59.271Z,69.30
2023-02-13T20:34:31.637Z,69.00
2023-02-13T20:37:06.543Z,69.00
2023-02-13T20:39:35.499Z,68.80
2023-02-13T20:42:06.680Z,68.70
2023-02-13T20:44:35.732Z,68.60
2023-02-13T20:47:05.179Z,69.30
2023-02-13T20:49:34.160Z,68.40
2023-02-13T20:52:03.733Z,68.40
2023-02-13T20:54:32.959Z,68.40
2023-02-13T20:57:02.058Z,69.00
2023-02-13T20:59:32.613Z,68.90
2023-02-13T21:02:01.629Z,68.20
2023-02-13T21:04:32.668Z,68.20
2023-02-13T21:07:02.706Z,68.20
2023-02-13T21:09:31.804Z,68.30
2023-02-13T21:12:00.733Z,68.30
2023-02-13T21:14:31.103Z,69.10
2023-02-13T21:17:00.105Z,68.40
2023-02-13T21:19:31.213Z,68.70
2023-02-13T21:22:11.105Z,68.80
2023-02-13T21:24:41.842Z,69.10
2023-02-13T21:27:11.700Z,69.80
2023-02-13T21:29:42.184Z,69.00
2023-02-13T21:32:11.203Z,69.00
2023-02-13T21:34:40.271Z,69.50
2023-02-13T21:37:09.201Z,69.50
2023-02-13T21:39:38.206Z,69.60
2023-02-13T21:42:07.246Z,69.80
2023-02-13T21:44:36.221Z,69.70
2023-02-13T21:47:07.242Z,69.60
2023-02-13T21:49:36.830Z,69.60
2023-02-13T21:52:06.026Z,69.80
2023-02-13T21:54:35.320Z,70.00
2023-02-13T21:57:04.375Z,70.10
2023-02-13T21:59:33.385Z,70.00
2023-02-13T22:02:02.774Z,69.90
2023-02-13T22:04:33.254Z,69.90
2023-02-13T22:07:02.182Z,69.90
2023-02-13T22:09:31.187Z,69.80
2023-02-13T22:12:00.209Z,69.80
2023-02-13T22:14:29.341Z,69.80
2023-02-13T22:16:58.461Z,70.70
2023-02-13T22:19:27.528Z,70.00
2023-02-13T22:21:57.835Z,70.10
2023-02-13T22:24:27.816Z,70.20
2023-02-13T22:26:56.846Z,70.10
2023-02-13T22:29:26.984Z,70.10
2023-02-13T22:31:56.093Z,70.00
2023-02-13T22:34:25.060Z,70.00
2023-02-13T22:36:58.579Z,69.90
2023-02-13T22:39:30.892Z,69.80
2023-02-13T22:41:59.858Z,69.90
2023-02-13T22:44:29.191Z,69.80
2023-02-13T22:46:58.224Z,69.90
2023-02-13T22:49:27.335Z,69.90
2023-02-13T22:51:56.401Z,69.90
2023-02-13T22:54:29.820Z,69.90
2023-02-13T22:56:58.791Z,70.10
2023-02-13T22:59:27.729Z,70.20
2023-02-13T23:01:56.739Z,70.10
2023-02-13T23:04:27.963Z,70.00
2023-02-13T23:06:57.020Z,70.10
2023-02-13T23:09:26.603Z,70.90
2023-02-13T23:12:14.624Z,70.00
2023-02-13T23:14:43.867Z,69.80
2023-02-13T23:17:30.531Z,69.70
2023-02-13T23:19:59.481Z,69.60
2023-02-13T23:22:30.752Z,70.20
2023-02-13T23:25:02.840Z,69.40
2023-02-13T23:27:36.610Z,69.40
2023-02-13T23:30:08.136Z,69.40
2023-02-13T23:32:40.239Z,69.70
2023-02-13T23:35:10.699Z,70.00
2023-02-13T23:37:39.707Z,70.20
2023-02-13T23:40:10.723Z,70.30
2023-02-13T23:42:41.286Z,70.50
2023-02-13T23:45:10.932Z,70.60
2023-02-13T23:47:40.052Z,70.50
2023-02-13T23:50:10.044Z,70.50
2023-02-13T23:52:39.020Z,70.60
2023-02-13T23:55:08.430Z,70.70
2023-02-13T23:57:37.403Z,70.90
